»·PEaware :: N5729R KCRQ-KSNA

N5729R :: KCRQ-KSNA

FLIGHT INFORMATION

Flight Status: Arrived
Operator: Privately registered:
United States
More flights under this callsign
Pilot: Anonymous 8799 (8799)
Aircraft: CESSNA 172 SKYHAWK
(C172)
More flights by this aircraft type
Origin: KCRQ McClellan-Palomar
United States
Destination: KSNA John Wayne-Orange Co
United States
More flights between these airports :: More routes between these airports
Route: +OCN V23 SLI
File this flight plan on PilotEdge
Remarks:
Altitude:
(Current/Filed)
6,000ft
Speed:
(Current/Filed)
120kts
Departed: 12-Aug-17 09:34 AM
Arrived: 12-Aug-17 10:14 AM
Distance/Time
Traveled:
44nm/0:40
Distance/Time
To Go:
Arrived

Flight Plot

Page will automatically refresh every two minutes.


Map Options




Map Legend


Flown Route
Filed Route
Departure Airport
Arrival Airport
Navaid (VOR, NDB)
Fix

Horizontal Profiles

Position Reports

Time Latitude Longitude Heading Altitude Ground
Speed
12-Aug-17 09:20 33.126863 -117.280582 338 297ft 0kts
12-Aug-17 09:21 33.126863 -117.280582 338 297ft 0kts
12-Aug-17 09:22 33.126863 -117.280582 338 297ft 0kts
12-Aug-17 09:23 33.126863 -117.280582 338 297ft 0kts
12-Aug-17 09:24 33.126863 -117.280582 338 297ft 0kts
12-Aug-17 09:25 33.126863 -117.280582 338 297ft 0kts
12-Aug-17 09:26 33.126863 -117.280582 338 297ft 0kts
12-Aug-17 09:27 33.126863 -117.280582 338 297ft 0kts
12-Aug-17 09:28 33.126863 -117.280582 338 297ft 0kts
12-Aug-17 09:29 33.126863 -117.280582 338 297ft 0kts
12-Aug-17 09:30 33.127446 -117.279850 71 297ft 9kts
12-Aug-17 09:31 33.127938 -117.276993 82 297ft 8kts
12-Aug-17 09:32 33.128421 -117.273905 80 297ft 10kts
12-Aug-17 09:33 33.128604 -117.272982 57 297ft 0kts
12-Aug-17 09:34 33.128604 -117.272982 57 297ft 0kts
12-Aug-17 09:35 33.128665 -117.272882 49 297ft 7kts
12-Aug-17 09:36 33.129447 -117.272691 262 298ft 0kts
12-Aug-17 09:37 33.127397 -117.286066 262 547ft 71kts
12-Aug-17 09:38 33.124258 -117.314199 260 1026ft 94kts
12-Aug-17 09:39 33.120408 -117.345952 260 1538ft 98kts
12-Aug-17 09:40 33.116453 -117.378247 260 2035ft 98kts
12-Aug-17 09:41 33.111936 -117.412146 260 2423ft 101kts
12-Aug-17 09:42 33.119824 -117.438894 0 2902ft 103kts
12-Aug-17 09:43 33.148216 -117.435002 5 3400ft 102kts
12-Aug-17 09:44 33.176079 -117.430008 6 3893ft 100kts
12-Aug-17 09:45 33.203299 -117.424904 6 4385ft 98kts
12-Aug-17 09:46 33.230005 -117.419896 6 4877ft 95kts
12-Aug-17 09:47 33.251716 -117.430812 315 5369ft 89kts
12-Aug-17 09:48 33.269261 -117.451359 314 5860ft 87kts
12-Aug-17 09:49 33.288259 -117.473482 315 6026ft 109kts
12-Aug-17 09:50 33.309303 -117.497960 315 6036ft 111kts
12-Aug-17 09:51 33.332405 -117.524920 315 6024ft 117kts
12-Aug-17 09:52 33.355644 -117.552009 315 6028ft 116kts
12-Aug-17 09:53 33.378779 -117.579002 315 6032ft 116kts
12-Aug-17 09:54 33.401861 -117.605954 315 6035ft 116kts
12-Aug-17 09:55 33.424966 -117.633019 315 6032ft 116kts
12-Aug-17 09:56 33.446987 -117.658861 316 6021ft 120kts
12-Aug-17 09:57 33.471753 -117.687874 315 6020ft 127kts
12-Aug-17 09:58 33.497249 -117.717805 315 6012ft 129kts
12-Aug-17 09:59 33.528524 -117.732439 1 6008ft 128kts
12-Aug-17 10:00 33.564244 -117.732406 1 6004ft 129kts
12-Aug-17 10:01 33.600261 -117.732139 1 6000ft 129kts
12-Aug-17 10:02 33.637125 -117.730993 1 5657ft 134kts
12-Aug-17 10:03 33.673058 -117.728466 1 4946ft 127kts
12-Aug-17 10:04 33.707988 -117.726394 1 4246ft 125kts
12-Aug-17 10:05 33.740131 -117.724712 1 4015ft 101kts
12-Aug-17 10:06 33.770506 -117.723045 1 4030ft 116kts
12-Aug-17 10:07 33.803374 -117.721118 1 4026ft 119kts
12-Aug-17 10:08 33.836644 -117.718972 1 4025ft 120kts
12-Aug-17 10:09 33.867342 -117.724625 292 4023ft 117kts
12-Aug-17 10:10 33.852936 -117.759684 224 3785ft 133kts
12-Aug-17 10:11 33.821607 -117.783917 200 3126ft 135kts
12-Aug-17 10:12 33.785966 -117.796817 203 2418ft 133kts
12-Aug-17 10:13 33.753391 -117.817200 208 1698ft 130kts
12-Aug-17 10:14 33.723234 -117.837261 209 1014ft 114kts
12-Aug-17 10:15 33.697923 -117.854459 210 451ft 94kts
12-Aug-17 10:16 33.679045 -117.866701 206 64ft 67kts
12-Aug-17 10:17 33.669359 -117.871946 138 60ft 7kts
12-Aug-17 10:18 33.669590 -117.870444 34 60ft 13kts
12-Aug-17 10:19 33.671740 -117.867357 53 60ft 9kts
12-Aug-17 10:20 33.671908 -117.867326 305 60ft 0kts
12-Aug-17 10:21 33.671908 -117.867326 305 60ft 0kts

Navigation Log

Ident Type
1. KCRQ Airport
2. OCN Navaid
3. KELPS Fix
4. DANAH Fix
5. KRAUZ Fix
6. BALBO Fix
7. MIDDS Fix
8. SLI Navaid
9. KSNA Airport